Terminal Aerodrome Forecast
Issued by NWS

Home | Current Version | Previous Version | Text Only | Print | Product List | Glossary On
Versions: 1 2 3 4 5 6 7 8 9 10 11 12 13 14
000
FTUS43 KDTX 302326
TAFPTK
TAF
KPTK 302326Z 3100/3124 28010KT P6SM BKN060
     FM310100 32005KT P6SM SKC
     FM310500 03005KT P6SM SCT250
     FM311400 07007KT P6SM BKN250
     FM311900 09007KT P6SM FEW050 OVC200=

USA.gov is the U.S. government's official web portal to all federal, state and local government web resources and services.